sensor_id;sensor_type;location;lat;lon;timestamp;temperature;humidity
802;DHT22;383;48.766;9.270;2023-06-14T00:01:38;15.70;60.90
802;DHT22;383;48.766;9.270;2023-06-14T00:04:13;15.70;60.60
802;DHT22;383;48.766;9.270;2023-06-14T00:06:43;15.80;60.60
802;DHT22;383;48.766;9.270;2023-06-14T00:09:24;15.80;60.80
802;DHT22;383;48.766;9.270;2023-06-14T00:12:12;15.80;61.00
802;DHT22;383;48.766;9.270;2023-06-14T00:14:44;15.60;61.30
802;DHT22;383;48.766;9.270;2023-06-14T00:17:18;15.50;61.70
802;DHT22;383;48.766;9.270;2023-06-14T00:20:32;15.40;62.10
802;DHT22;383;48.766;9.270;2023-06-14T00:22:51;15.40;62.30
802;DHT22;383;48.766;9.270;2023-06-14T00:25:24;15.50;62.20
802;DHT22;383;48.766;9.270;2023-06-14T00:28:01;15.60;62.10
802;DHT22;383;48.766;9.270;2023-06-14T00:30:34;15.50;62.30
802;DHT22;383;48.766;9.270;2023-06-14T00:33:28;15.40;62.60
802;DHT22;383;48.766;9.270;2023-06-14T00:35:59;15.40;63.00
802;DHT22;383;48.766;9.270;2023-06-14T00:38:27;15.30;63.00
802;DHT22;383;48.766;9.270;2023-06-14T00:40:59;15.30;63.40
802;DHT22;383;48.766;9.270;2023-06-14T00:43:31;15.20;63.70
802;DHT22;383;48.766;9.270;2023-06-14T00:46:01;15.20;63.90
802;DHT22;383;48.766;9.270;2023-06-14T00:48:30;15.20;63.90
802;DHT22;383;48.766;9.270;2023-06-14T00:51:05;15.20;63.90
802;DHT22;383;48.766;9.270;2023-06-14T00:53:44;15.10;64.10
802;DHT22;383;48.766;9.270;2023-06-14T00:56:25;15.10;64.50
802;DHT22;383;48.766;9.270;2023-06-14T00:59:01;15.00;65.00
802;DHT22;383;48.766;9.270;2023-06-14T01:01:32;14.90;65.10
802;DHT22;383;48.766;9.270;2023-06-14T01:04:01;14.90;65.20
802;DHT22;383;48.766;9.270;2023-06-14T01:06:39;14.90;65.20
802;DHT22;383;48.766;9.270;2023-06-14T01:09:21;14.80;65.60
802;DHT22;383;48.766;9.270;2023-06-14T01:12:04;14.70;66.00
802;DHT22;383;48.766;9.270;2023-06-14T01:14:38;14.60;66.40
802;DHT22;383;48.766;9.270;2023-06-14T01:17:09;14.60;66.80
802;DHT22;383;48.766;9.270;2023-06-14T01:19:42;14.60;66.80
802;DHT22;383;48.766;9.270;2023-06-14T01:22:11;14.50;66.80
802;DHT22;383;48.766;9.270;2023-06-14T01:24:43;14.50;67.20
802;DHT22;383;48.766;9.270;2023-06-14T01:27:15;14.50;67.40
802;DHT22;383;48.766;9.270;2023-06-14T01:29:45;14.50;67.80
802;DHT22;383;48.766;9.270;2023-06-14T01:32:17;14.50;67.90
802;DHT22;383;48.766;9.270;2023-06-14T01:34:53;14.50;67.90
802;DHT22;383;48.766;9.270;2023-06-14T01:37:28;14.40;68.00
802;DHT22;383;48.766;9.270;2023-06-14T01:40:00;14.40;68.20
802;DHT22;383;48.766;9.270;2023-06-14T01:42:36;14.30;68.30
802;DHT22;383;48.766;9.270;2023-06-14T01:45:09;14.30;68.70
802;DHT22;383;48.766;9.270;2023-06-14T01:47:49;14.20;68.90
802;DHT22;383;48.766;9.270;2023-06-14T01:50:20;14.20;69.30
802;DHT22;383;48.766;9.270;2023-06-14T01:53:07;14.10;69.50
802;DHT22;383;48.766;9.270;2023-06-14T01:55:47;14.10;69.50
802;DHT22;383;48.766;9.270;2023-06-14T01:58:17;14.00;69.70
802;DHT22;383;48.766;9.270;2023-06-14T02:00:46;14.00;70.00
802;DHT22;383;48.766;9.270;2023-06-14T02:03:17;13.90;70.00
802;DHT22;383;48.766;9.270;2023-06-14T02:05:46;13.90;70.10
802;DHT22;383;48.766;9.270;2023-06-14T02:08:14;14.00;70.30
802;DHT22;383;48.766;9.270;2023-06-14T02:10:43;14.00;70.30
802;DHT22;383;48.766;9.270;2023-06-14T02:13:12;13.90;70.40
802;DHT22;383;48.766;9.270;2023-06-14T02:15:43;13.90;70.80
802;DHT22;383;48.766;9.270;2023-06-14T02:18:19;13.90;70.90
802;DHT22;383;48.766;9.270;2023-06-14T02:20:50;13.80;71.20
802;DHT22;383;48.766;9.270;2023-06-14T02:23:30;13.80;71.20
802;DHT22;383;48.766;9.270;2023-06-14T02:26:10;13.80;71.60
802;DHT22;383;48.766;9.270;2023-06-14T02:28:47;13.70;72.10
802;DHT22;383;48.766;9.270;2023-06-14T02:31:17;13.70;72.10
802;DHT22;383;48.766;9.270;2023-06-14T02:33:46;13.70;72.30
802;DHT22;383;48.766;9.270;2023-06-14T02:36:14;13.60;72.50
802;DHT22;383;48.766;9.270;2023-06-14T02:38:42;13.60;72.60
802;DHT22;383;48.766;9.270;2023-06-14T02:41:11;13.50;72.80
802;DHT22;383;48.766;9.270;2023-06-14T02:43:39;13.50;73.20
802;DHT22;383;48.766;9.270;2023-06-14T02:46:09;13.50;73.30
802;DHT22;383;48.766;9.270;2023-06-14T02:48:40;13.50;73.70
802;DHT22;383;48.766;9.270;2023-06-14T02:51:10;13.40;74.00
802;DHT22;383;48.766;9.270;2023-06-14T02:53:39;13.40;74.10
802;DHT22;383;48.766;9.270;2023-06-14T02:56:12;13.40;74.20
802;DHT22;383;48.766;9.270;2023-06-14T02:58:40;13.40;74.40
802;DHT22;383;48.766;9.270;2023-06-14T03:01:12;13.30;74.80
802;DHT22;383;48.766;9.270;2023-06-14T03:03:41;13.30;75.00
802;DHT22;383;48.766;9.270;2023-06-14T03:06:10;13.30;75.20
802;DHT22;383;48.766;9.270;2023-06-14T03:08:42;13.30;75.20
802;DHT22;383;48.766;9.270;2023-06-14T03:11:15;13.20;75.60
802;DHT22;383;48.766;9.270;2023-06-14T03:13:45;13.10;76.00
802;DHT22;383;48.766;9.270;2023-06-14T03:16:18;13.10;76.30
802;DHT22;383;48.766;9.270;2023-06-14T03:19:00;13.10;76.20
802;DHT22;383;48.766;9.270;2023-06-14T03:21:43;13.20;76.10
802;DHT22;383;48.766;9.270;2023-06-14T03:24:12;13.10;76.30
802;DHT22;383;48.766;9.270;2023-06-14T03:26:45;13.10;76.20
802;DHT22;383;48.766;9.270;2023-06-14T03:29:20;13.00;76.90
802;DHT22;383;48.766;9.270;2023-06-14T03:32:06;12.90;77.40
802;DHT22;383;48.766;9.270;2023-06-14T03:34:46;13.00;77.40
802;DHT22;383;48.766;9.270;2023-06-14T03:37:32;13.00;77.40
802;DHT22;383;48.766;9.270;2023-06-14T03:40:33;13.00;77.40
802;DHT22;383;48.766;9.270;2023-06-14T03:43:09;13.10;77.10
802;DHT22;383;48.766;9.270;2023-06-14T03:46:03;13.10;76.90
802;DHT22;383;48.766;9.270;2023-06-14T03:48:40;13.00;77.30
802;DHT22;383;48.766;9.270;2023-06-14T03:51:15;13.10;77.30
802;DHT22;383;48.766;9.270;2023-06-14T03:53:50;13.10;77.40
802;DHT22;383;48.766;9.270;2023-06-14T03:56:23;13.10;77.10
802;DHT22;383;48.766;9.270;2023-06-14T03:58:51;13.20;77.00
802;DHT22;383;48.766;9.270;2023-06-14T04:01:24;13.20;77.00
802;DHT22;383;48.766;9.270;2023-06-14T04:04:01;13.10;77.30
802;DHT22;383;48.766;9.270;2023-06-14T04:06:35;13.10;77.40
802;DHT22;383;48.766;9.270;2023-06-14T04:09:12;13.20;77.30
802;DHT22;383;48.766;9.270;2023-06-14T04:11:40;13.10;77.70
802;DHT22;383;48.766;9.270;2023-06-14T04:14:09;13.10;77.90
802;DHT22;383;48.766;9.270;2023-06-14T04:16:37;13.10;77.70
802;DHT22;383;48.766;9.270;2023-06-14T04:19:08;13.20;77.70
802;DHT22;383;48.766;9.270;2023-06-14T04:21:36;13.20;77.80
802;DHT22;383;48.766;9.270;2023-06-14T04:24:11;13.20;78.10
802;DHT22;383;48.766;9.270;2023-06-14T04:26:40;13.20;78.10
802;DHT22;383;48.766;9.270;2023-06-14T04:29:10;13.20;78.20
802;DHT22;383;48.766;9.270;2023-06-14T04:31:43;13.20;78.10
802;DHT22;383;48.766;9.270;2023-06-14T04:34:18;13.20;78.50
802;DHT22;383;48.766;9.270;2023-06-14T04:36:58;13.20;78.50
802;DHT22;383;48.766;9.270;2023-06-14T04:39:36;13.20;79.00
802;DHT22;383;48.766;9.270;2023-06-14T04:42:04;13.30;79.00
802;DHT22;383;48.766;9.270;2023-06-14T04:44:32;13.40;78.70
802;DHT22;383;48.766;9.270;2023-06-14T04:47:00;13.50;78.60
802;DHT22;383;48.766;9.270;2023-06-14T04:49:28;13.50;78.50
802;DHT22;383;48.766;9.270;2023-06-14T04:51:57;13.50;78.60
802;DHT22;383;48.766;9.270;2023-06-14T04:54:24;13.60;78.50
802;DHT22;383;48.766;9.270;2023-06-14T04:56:51;13.60;78.20
802;DHT22;383;48.766;9.270;2023-06-14T04:59:18;13.70;78.10
802;DHT22;383;48.766;9.270;2023-06-14T05:01:45;13.80;78.10
802;DHT22;383;48.766;9.270;2023-06-14T05:04:13;13.80;78.60
802;DHT22;383;48.766;9.270;2023-06-14T05:06:41;13.80;78.50
802;DHT22;383;48.766;9.270;2023-06-14T05:09:10;13.80;77.50
802;DHT22;383;48.766;9.270;2023-06-14T05:11:37;13.90;76.50
802;DHT22;383;48.766;9.270;2023-06-14T05:14:03;14.00;77.40
802;DHT22;383;48.766;9.270;2023-06-14T05:16:31;14.00;78.50
802;DHT22;383;48.766;9.270;2023-06-14T05:18:58;14.10;79.30
802;DHT22;383;48.766;9.270;2023-06-14T05:21:24;14.20;79.30
802;DHT22;383;48.766;9.270;2023-06-14T05:23:53;14.30;79.00
802;DHT22;383;48.766;9.270;2023-06-14T05:26:19;14.40;78.90
802;DHT22;383;48.766;9.270;2023-06-14T05:28:46;14.60;78.50
802;DHT22;383;48.766;9.270;2023-06-14T05:31:13;14.70;77.70
802;DHT22;383;48.766;9.270;2023-06-14T05:33:39;14.80;76.70
802;DHT22;383;48.766;9.270;2023-06-14T05:36:06;15.00;75.20
802;DHT22;383;48.766;9.270;2023-06-14T05:38:33;15.20;74.40
802;DHT22;383;48.766;9.270;2023-06-14T05:41:01;15.30;74.00
802;DHT22;383;48.766;9.270;2023-06-14T05:43:28;15.60;73.60
802;DHT22;383;48.766;9.270;2023-06-14T05:45:54;15.80;71.60
802;DHT22;383;48.766;9.270;2023-06-14T05:48:21;16.00;71.10
802;DHT22;383;48.766;9.270;2023-06-14T05:50:48;16.20;70.10
802;DHT22;383;48.766;9.270;2023-06-14T05:53:14;16.30;69.90
802;DHT22;383;48.766;9.270;2023-06-14T05:55:41;16.40;69.90
802;DHT22;383;48.766;9.270;2023-06-14T05:58:09;16.50;68.70
802;DHT22;383;48.766;9.270;2023-06-14T06:00:39;16.60;67.90
802;DHT22;383;48.766;9.270;2023-06-14T06:03:05;16.70;66.60
802;DHT22;383;48.766;9.270;2023-06-14T06:05:33;16.80;65.40
802;DHT22;383;48.766;9.270;2023-06-14T06:08:00;17.00;64.70
802;DHT22;383;48.766;9.270;2023-06-14T06:10:49;17.10;65.90
802;DHT22;383;48.766;9.270;2023-06-14T06:13:17;17.30;64.30
802;DHT22;383;48.766;9.270;2023-06-14T06:15:43;17.40;64.90
802;DHT22;383;48.766;9.270;2023-06-14T06:18:10;17.40;65.80
802;DHT22;383;48.766;9.270;2023-06-14T06:20:37;17.60;62.50
802;DHT22;383;48.766;9.270;2023-06-14T06:23:04;17.80;62.70
802;DHT22;383;48.766;9.270;2023-06-14T06:25:30;17.90;61.90
802;DHT22;383;48.766;9.270;2023-06-14T06:27:57;18.10;59.80
802;DHT22;383;48.766;9.270;2023-06-14T06:30:25;18.20;59.70
802;DHT22;383;48.766;9.270;2023-06-14T06:32:52;18.40;60.50
802;DHT22;383;48.766;9.270;2023-06-14T06:35:21;18.40;59.30
802;DHT22;383;48.766;9.270;2023-06-14T06:37:47;18.60;59.70
802;DHT22;383;48.766;9.270;2023-06-14T06:40:14;18.60;57.50
802;DHT22;383;48.766;9.270;2023-06-14T06:42:41;18.60;58.80
802;DHT22;383;48.766;9.270;2023-06-14T06:45:08;18.80;57.20
802;DHT22;383;48.766;9.270;2023-06-14T06:47:37;18.90;57.40
802;DHT22;383;48.766;9.270;2023-06-14T06:50:04;19.00;57.20
802;DHT22;383;48.766;9.270;2023-06-14T06:52:31;19.10;56.90
802;DHT22;383;48.766;9.270;2023-06-14T06:54:58;19.10;56.90
802;DHT22;383;48.766;9.270;2023-06-14T06:57:25;19.30;54.60
802;DHT22;383;48.766;9.270;2023-06-14T06:59:51;19.50;54.10
802;DHT22;383;48.766;9.270;2023-06-14T07:02:18;19.60;55.60
802;DHT22;383;48.766;9.270;2023-06-14T07:04:46;19.70;54.70
802;DHT22;383;48.766;9.270;2023-06-14T07:07:13;19.70;55.20
802;DHT22;383;48.766;9.270;2023-06-14T07:09:40;19.80;55.20
802;DHT22;383;48.766;9.270;2023-06-14T07:12:07;19.80;55.00
802;DHT22;383;48.766;9.270;2023-06-14T07:14:34;19.90;54.50
802;DHT22;383;48.766;9.270;2023-06-14T07:17:01;20.00;54.60
802;DHT22;383;48.766;9.270;2023-06-14T07:19:28;20.10;53.30
802;DHT22;383;48.766;9.270;2023-06-14T07:21:57;20.30;52.80
802;DHT22;383;48.766;9.270;2023-06-14T07:24:24;20.50;52.60
802;DHT22;383;48.766;9.270;2023-06-14T07:26:51;20.60;50.30
802;DHT22;383;48.766;9.270;2023-06-14T07:29:17;20.60;50.90
802;DHT22;383;48.766;9.270;2023-06-14T07:31:45;20.60;51.40
802;DHT22;383;48.766;9.270;2023-06-14T07:34:11;20.70;52.00
802;DHT22;383;48.766;9.270;2023-06-14T07:36:38;20.90;51.20
802;DHT22;383;48.766;9.270;2023-06-14T07:39:06;20.90;50.20
802;DHT22;383;48.766;9.270;2023-06-14T07:41:33;20.90;50.80
802;DHT22;383;48.766;9.270;2023-06-14T07:44:00;21.00;50.40
802;DHT22;383;48.766;9.270;2023-06-14T07:46:28;20.90;51.80
802;DHT22;383;48.766;9.270;2023-06-14T07:48:55;21.10;52.60
802;DHT22;383;48.766;9.270;2023-06-14T07:51:22;21.10;51.60
802;DHT22;383;48.766;9.270;2023-06-14T07:53:49;21.30;51.90
802;DHT22;383;48.766;9.270;2023-06-14T07:56:17;21.50;51.50
802;DHT22;383;48.766;9.270;2023-06-14T07:58:43;21.70;50.30
802;DHT22;383;48.766;9.270;2023-06-14T08:01:10;21.80;49.90
802;DHT22;383;48.766;9.270;2023-06-14T08:03:37;21.90;49.70
802;DHT22;383;48.766;9.270;2023-06-14T08:06:04;22.00;48.90
802;DHT22;383;48.766;9.270;2023-06-14T08:08:31;21.90;49.70
802;DHT22;383;48.766;9.270;2023-06-14T08:10:58;22.00;50.30
802;DHT22;383;48.766;9.270;2023-06-14T08:13:26;22.10;49.30
802;DHT22;383;48.766;9.270;2023-06-14T08:15:52;22.20;49.80
802;DHT22;383;48.766;9.270;2023-06-14T08:18:19;22.40;49.80
802;DHT22;383;48.766;9.270;2023-06-14T08:20:46;22.40;49.00
802;DHT22;383;48.766;9.270;2023-06-14T08:23:12;22.50;49.30
802;DHT22;383;48.766;9.270;2023-06-14T08:25:39;22.50;49.50
802;DHT22;383;48.766;9.270;2023-06-14T08:28:06;22.70;49.00
802;DHT22;383;48.766;9.270;2023-06-14T08:30:34;22.80;49.70
802;DHT22;383;48.766;9.270;2023-06-14T08:33:00;23.00;48.60
802;DHT22;383;48.766;9.270;2023-06-14T08:35:27;23.00;49.00
802;DHT22;383;48.766;9.270;2023-06-14T08:37:54;23.10;48.70
802;DHT22;383;48.766;9.270;2023-06-14T08:40:22;23.10;48.30
802;DHT22;383;48.766;9.270;2023-06-14T08:42:51;23.20;47.80
802;DHT22;383;48.766;9.270;2023-06-14T08:45:18;23.20;47.60
802;DHT22;383;48.766;9.270;2023-06-14T08:47:47;23.30;48.20
802;DHT22;383;48.766;9.270;2023-06-14T08:50:19;23.40;47.90
802;DHT22;383;48.766;9.270;2023-06-14T08:52:48;23.60;47.30
802;DHT22;383;48.766;9.270;2023-06-14T08:55:18;23.70;47.20
802;DHT22;383;48.766;9.270;2023-06-14T08:57:46;23.90;46.90
802;DHT22;383;48.766;9.270;2023-06-14T09:00:15;23.90;46.40
802;DHT22;383;48.766;9.270;2023-06-14T09:02:45;23.90;45.80
802;DHT22;383;48.766;9.270;2023-06-14T09:05:15;24.00;46.30
802;DHT22;383;48.766;9.270;2023-06-14T09:07:44;24.20;46.10
802;DHT22;383;48.766;9.270;2023-06-14T09:10:15;24.20;46.60
802;DHT22;383;48.766;9.270;2023-06-14T09:12:42;24.30;45.70
802;DHT22;383;48.766;9.270;2023-06-14T09:15:10;24.30;45.90
802;DHT22;383;48.766;9.270;2023-06-14T09:17:37;24.40;45.00
802;DHT22;383;48.766;9.270;2023-06-14T09:20:05;24.50;45.70
802;DHT22;383;48.766;9.270;2023-06-14T09:22:37;24.60;46.60
802;DHT22;383;48.766;9.270;2023-06-14T09:25:05;24.70;45.30
802;DHT22;383;48.766;9.270;2023-06-14T09:27:32;24.80;43.50
802;DHT22;383;48.766;9.270;2023-06-14T09:30:01;24.80;42.40
802;DHT22;383;48.766;9.270;2023-06-14T09:32:28;24.80;43.10
802;DHT22;383;48.766;9.270;2023-06-14T09:34:56;24.80;42.10
802;DHT22;383;48.766;9.270;2023-06-14T09:37:30;24.80;42.60
802;DHT22;383;48.766;9.270;2023-06-14T09:39:59;24.80;42.60
802;DHT22;383;48.766;9.270;2023-06-14T09:42:26;24.90;43.20
802;DHT22;383;48.766;9.270;2023-06-14T09:44:55;25.00;43.60
802;DHT22;383;48.766;9.270;2023-06-14T09:47:22;25.20;42.60
802;DHT22;383;48.766;9.270;2023-06-14T09:49:49;25.30;41.90
802;DHT22;383;48.766;9.270;2023-06-14T09:52:18;25.30;41.60
802;DHT22;383;48.766;9.270;2023-06-14T09:54:46;25.20;41.50
802;DHT22;383;48.766;9.270;2023-06-14T09:57:16;25.20;42.20
802;DHT22;383;48.766;9.270;2023-06-14T09:59:44;25.20;41.70
802;DHT22;383;48.766;9.270;2023-06-14T10:02:14;25.40;40.00
802;DHT22;383;48.766;9.270;2023-06-14T10:04:47;25.50;38.60
802;DHT22;383;48.766;9.270;2023-06-14T10:07:19;25.70;38.80
802;DHT22;383;48.766;9.270;2023-06-14T10:09:47;25.60;38.00
802;DHT22;383;48.766;9.270;2023-06-14T10:12:17;25.70;36.40
802;DHT22;383;48.766;9.270;2023-06-14T10:14:48;25.90;36.60
802;DHT22;383;48.766;9.270;2023-06-14T10:17:22;26.10;34.70
802;DHT22;383;48.766;9.270;2023-06-14T10:19:55;26.00;33.60
802;DHT22;383;48.766;9.270;2023-06-14T10:22:27;25.90;34.80
802;DHT22;383;48.766;9.270;2023-06-14T10:24:55;25.90;36.40
802;DHT22;383;48.766;9.270;2023-06-14T10:27:23;25.80;37.10
802;DHT22;383;48.766;9.270;2023-06-14T10:30:02;25.80;37.40
802;DHT22;383;48.766;9.270;2023-06-14T10:32:30;26.00;37.90
802;DHT22;383;48.766;9.270;2023-06-14T10:34:59;26.10;37.80
802;DHT22;383;48.766;9.270;2023-06-14T10:37:26;26.10;37.30
802;DHT22;383;48.766;9.270;2023-06-14T10:39:53;26.20;37.80
802;DHT22;383;48.766;9.270;2023-06-14T10:42:20;26.20;38.10
802;DHT22;383;48.766;9.270;2023-06-14T10:44:51;26.40;36.80
802;DHT22;383;48.766;9.270;2023-06-14T10:47:25;26.60;37.80
802;DHT22;383;48.766;9.270;2023-06-14T10:49:53;26.70;36.90
802;DHT22;383;48.766;9.270;2023-06-14T10:52:22;26.80;36.00
802;DHT22;383;48.766;9.270;2023-06-14T10:55:11;26.80;36.00
802;DHT22;383;48.766;9.270;2023-06-14T10:57:41;26.80;36.80
802;DHT22;383;48.766;9.270;2023-06-14T11:00:10;27.10;35.80
802;DHT22;383;48.766;9.270;2023-06-14T11:05:51;27.30;36.30
802;DHT22;383;48.766;9.270;2023-06-14T11:08:33;27.20;35.50
802;DHT22;383;48.766;9.270;2023-06-14T11:11:06;27.10;35.50
802;DHT22;383;48.766;9.270;2023-06-14T11:13:33;26.80;35.90
802;DHT22;383;48.766;9.270;2023-06-14T11:16:02;26.60;36.20
802;DHT22;383;48.766;9.270;2023-06-14T11:18:28;26.20;36.50
802;DHT22;383;48.766;9.270;2023-06-14T11:20:55;26.00;35.80
802;DHT22;383;48.766;9.270;2023-06-14T11:23:22;26.00;37.10
802;DHT22;383;48.766;9.270;2023-06-14T11:25:52;26.20;38.00
802;DHT22;383;48.766;9.270;2023-06-14T11:28:19;26.40;36.40
802;DHT22;383;48.766;9.270;2023-06-14T11:30:47;26.60;37.00
802;DHT22;383;48.766;9.270;2023-06-14T11:33:18;26.80;37.80
802;DHT22;383;48.766;9.270;2023-06-14T11:35:45;26.90;36.60
802;DHT22;383;48.766;9.270;2023-06-14T11:38:15;26.80;36.60
802;DHT22;383;48.766;9.270;2023-06-14T11:40:41;26.70;38.40
802;DHT22;383;48.766;9.270;2023-06-14T11:43:08;26.90;37.40
802;DHT22;383;48.766;9.270;2023-06-14T11:45:35;26.90;36.60
802;DHT22;383;48.766;9.270;2023-06-14T11:48:02;27.00;37.10
802;DHT22;383;48.766;9.270;2023-06-14T11:50:30;27.10;37.30
802;DHT22;383;48.766;9.270;2023-06-14T11:53:00;27.00;36.90
802;DHT22;383;48.766;9.270;2023-06-14T11:55:32;26.90;36.30
802;DHT22;383;48.766;9.270;2023-06-14T11:57:59;26.90;36.20
802;DHT22;383;48.766;9.270;2023-06-14T12:00:26;27.10;35.90
802;DHT22;383;48.766;9.270;2023-06-14T12:02:54;27.10;37.00
802;DHT22;383;48.766;9.270;2023-06-14T12:05:21;27.30;35.50
802;DHT22;383;48.766;9.270;2023-06-14T12:07:49;27.40;36.40
802;DHT22;383;48.766;9.270;2023-06-14T12:10:19;27.60;35.20
802;DHT22;383;48.766;9.270;2023-06-14T12:12:45;27.90;34.90
802;DHT22;383;48.766;9.270;2023-06-14T12:15:12;28.10;34.20
802;DHT22;383;48.766;9.270;2023-06-14T12:17:39;28.10;33.70
802;DHT22;383;48.766;9.270;2023-06-14T12:20:08;27.90;34.00
802;DHT22;383;48.766;9.270;2023-06-14T12:22:39;27.60;34.90
802;DHT22;383;48.766;9.270;2023-06-14T12:25:08;27.60;35.80
802;DHT22;383;48.766;9.270;2023-06-14T12:27:39;27.70;36.00
802;DHT22;383;48.766;9.270;2023-06-14T12:30:08;27.80;35.90
802;DHT22;383;48.766;9.270;2023-06-14T12:32:35;27.80;35.90
802;DHT22;383;48.766;9.270;2023-06-14T12:35:02;27.80;35.70
802;DHT22;383;48.766;9.270;2023-06-14T12:37:29;27.90;36.30
802;DHT22;383;48.766;9.270;2023-06-14T12:39:55;28.20;34.20
802;DHT22;383;48.766;9.270;2023-06-14T12:42:24;28.20;35.20
802;DHT22;383;48.766;9.270;2023-06-14T12:44:50;28.30;36.20
802;DHT22;383;48.766;9.270;2023-06-14T12:47:17;28.60;34.40
802;DHT22;383;48.766;9.270;2023-06-14T12:49:44;28.70;35.30
802;DHT22;383;48.766;9.270;2023-06-14T12:52:11;28.80;32.90
802;DHT22;383;48.766;9.270;2023-06-14T12:54:37;28.60;33.60
802;DHT22;383;48.766;9.270;2023-06-14T12:57:05;28.30;33.90
802;DHT22;383;48.766;9.270;2023-06-14T12:59:33;28.00;33.90
802;DHT22;383;48.766;9.270;2023-06-14T13:02:13;27.90;33.90
802;DHT22;383;48.766;9.270;2023-06-14T13:04:40;27.90;34.70
802;DHT22;383;48.766;9.270;2023-06-14T13:07:06;28.00;35.30
802;DHT22;383;48.766;9.270;2023-06-14T13:09:33;28.20;35.20
802;DHT22;383;48.766;9.270;2023-06-14T13:12:00;28.30;33.90
802;DHT22;383;48.766;9.270;2023-06-14T13:14:27;28.30;34.50
802;DHT22;383;48.766;9.270;2023-06-14T13:16:55;28.10;34.50
802;DHT22;383;48.766;9.270;2023-06-14T13:19:22;27.90;35.80
802;DHT22;383;48.766;9.270;2023-06-14T13:21:49;28.20;34.90
802;DHT22;383;48.766;9.270;2023-06-14T13:24:15;28.50;34.70
802;DHT22;383;48.766;9.270;2023-06-14T13:26:42;28.50;34.30
802;DHT22;383;48.766;9.270;2023-06-14T13:29:09;28.40;35.00
802;DHT22;383;48.766;9.270;2023-06-14T13:31:36;28.60;34.50
802;DHT22;383;48.766;9.270;2023-06-14T13:34:05;28.90;34.20
802;DHT22;383;48.766;9.270;2023-06-14T13:36:33;29.20;34.30
802;DHT22;383;48.766;9.270;2023-06-14T13:39:00;29.40;33.90
802;DHT22;383;48.766;9.270;2023-06-14T13:41:28;29.60;33.10
802;DHT22;383;48.766;9.270;2023-06-14T13:43:57;29.70;33.70
802;DHT22;383;48.766;9.270;2023-06-14T13:46:25;29.90;32.10
802;DHT22;383;48.766;9.270;2023-06-14T13:48:51;30.10;32.10
802;DHT22;383;48.766;9.270;2023-06-14T13:51:19;30.20;32.60
802;DHT22;383;48.766;9.270;2023-06-14T13:53:47;30.60;31.20
802;DHT22;383;48.766;9.270;2023-06-14T13:56:14;30.80;31.80
802;DHT22;383;48.766;9.270;2023-06-14T13:58:41;30.80;32.10
802;DHT22;383;48.766;9.270;2023-06-14T14:01:07;30.60;32.70
802;DHT22;383;48.766;9.270;2023-06-14T14:03:35;30.40;32.80
802;DHT22;383;48.766;9.270;2023-06-14T14:06:02;30.10;32.80
802;DHT22;383;48.766;9.270;2023-06-14T14:08:30;29.70;33.30
802;DHT22;383;48.766;9.270;2023-06-14T14:10:57;29.20;33.60
802;DHT22;383;48.766;9.270;2023-06-14T14:13:23;28.70;34.00
802;DHT22;383;48.766;9.270;2023-06-14T14:15:50;28.20;34.70
802;DHT22;383;48.766;9.270;2023-06-14T14:18:18;27.90;35.00
802;DHT22;383;48.766;9.270;2023-06-14T14:20:46;27.60;36.00
802;DHT22;383;48.766;9.270;2023-06-14T14:23:12;27.30;36.80
802;DHT22;383;48.766;9.270;2023-06-14T14:25:41;27.20;37.30
802;DHT22;383;48.766;9.270;2023-06-14T14:28:07;27.00;36.60
802;DHT22;383;48.766;9.270;2023-06-14T14:30:34;26.90;37.60
802;DHT22;383;48.766;9.270;2023-06-14T14:33:03;26.90;36.50
802;DHT22;383;48.766;9.270;2023-06-14T14:35:30;27.10;36.80
802;DHT22;383;48.766;9.270;2023-06-14T14:37:57;27.40;35.80
802;DHT22;383;48.766;9.270;2023-06-14T14:40:24;27.90;35.00
802;DHT22;383;48.766;9.270;2023-06-14T14:42:52;28.40;35.40
802;DHT22;383;48.766;9.270;2023-06-14T14:45:19;28.90;34.20
802;DHT22;383;48.766;9.270;2023-06-14T14:47:46;29.30;34.00
802;DHT22;383;48.766;9.270;2023-06-14T14:50:13;29.60;34.50
802;DHT22;383;48.766;9.270;2023-06-14T14:52:40;30.10;33.90
802;DHT22;383;48.766;9.270;2023-06-14T14:55:08;30.50;33.60
802;DHT22;383;48.766;9.270;2023-06-14T14:57:35;30.70;31.90
802;DHT22;383;48.766;9.270;2023-06-14T15:00:04;31.00;32.10
802;DHT22;383;48.766;9.270;2023-06-14T15:02:31;31.20;31.80
802;DHT22;383;48.766;9.270;2023-06-14T15:04:58;31.10;32.30
802;DHT22;383;48.766;9.270;2023-06-14T15:07:26;31.30;31.60
802;DHT22;383;48.766;9.270;2023-06-14T15:09:53;31.50;31.70
802;DHT22;383;48.766;9.270;2023-06-14T15:12:19;31.50;31.40
802;DHT22;383;48.766;9.270;2023-06-14T15:14:49;31.50;31.30
802;DHT22;383;48.766;9.270;2023-06-14T15:17:17;31.20;31.40
802;DHT22;383;48.766;9.270;2023-06-14T15:19:45;30.90;31.40
802;DHT22;383;48.766;9.270;2023-06-14T15:22:12;30.60;31.90
802;DHT22;383;48.766;9.270;2023-06-14T15:24:40;30.50;32.40
802;DHT22;383;48.766;9.270;2023-06-14T15:27:06;30.30;32.70
802;DHT22;383;48.766;9.270;2023-06-14T15:29:33;29.90;32.80
802;DHT22;383;48.766;9.270;2023-06-14T15:32:00;29.60;33.70
802;DHT22;383;48.766;9.270;2023-06-14T15:34:28;29.50;33.80
802;DHT22;383;48.766;9.270;2023-06-14T15:36:55;29.50;33.70
802;DHT22;383;48.766;9.270;2023-06-14T15:39:22;29.50;33.60
802;DHT22;383;48.766;9.270;2023-06-14T15:41:49;29.70;33.30
802;DHT22;383;48.766;9.270;2023-06-14T15:44:16;29.70;33.60
802;DHT22;383;48.766;9.270;2023-06-14T15:46:43;29.90;33.40
802;DHT22;383;48.766;9.270;2023-06-14T15:49:10;30.10;32.80
802;DHT22;383;48.766;9.270;2023-06-14T15:51:41;30.10;32.80
802;DHT22;383;48.766;9.270;2023-06-14T15:54:07;30.10;32.30
802;DHT22;383;48.766;9.270;2023-06-14T15:56:35;30.00;33.60
802;DHT22;383;48.766;9.270;2023-06-14T15:59:01;30.00;33.10
802;DHT22;383;48.766;9.270;2023-06-14T16:01:28;30.10;33.10
802;DHT22;383;48.766;9.270;2023-06-14T16:03:55;30.00;33.20
802;DHT22;383;48.766;9.270;2023-06-14T16:06:22;29.90;32.80
802;DHT22;383;48.766;9.270;2023-06-14T16:08:50;30.00;32.40
802;DHT22;383;48.766;9.270;2023-06-14T16:11:18;30.00;32.90
802;DHT22;383;48.766;9.270;2023-06-14T16:13:45;30.20;32.80
802;DHT22;383;48.766;9.270;2023-06-14T16:16:12;30.30;32.80
802;DHT22;383;48.766;9.270;2023-06-14T16:18:39;30.30;32.60
802;DHT22;383;48.766;9.270;2023-06-14T16:21:06;30.30;31.40
802;DHT22;383;48.766;9.270;2023-06-14T16:23:34;30.30;31.70
802;DHT22;383;48.766;9.270;2023-06-14T16:26:02;30.20;31.90
802;DHT22;383;48.766;9.270;2023-06-14T16:28:30;30.20;31.80
802;DHT22;383;48.766;9.270;2023-06-14T16:30:57;30.10;32.10
802;DHT22;383;48.766;9.270;2023-06-14T16:33:23;29.80;32.80
802;DHT22;383;48.766;9.270;2023-06-14T16:35:50;29.60;33.30
802;DHT22;383;48.766;9.270;2023-06-14T16:38:17;29.50;33.20
802;DHT22;383;48.766;9.270;2023-06-14T16:40:46;29.50;32.80
802;DHT22;383;48.766;9.270;2023-06-14T16:43:14;29.50;32.70
802;DHT22;383;48.766;9.270;2023-06-14T16:45:41;29.20;32.80
802;DHT22;383;48.766;9.270;2023-06-14T16:48:08;29.00;33.40
802;DHT22;383;48.766;9.270;2023-06-14T16:50:35;28.80;33.60
802;DHT22;383;48.766;9.270;2023-06-14T16:53:02;28.50;34.30